createdAt,value
2018-12-12T00:02:09.618Z,26.12
2018-12-12T00:07:12.309Z,20.50
2018-12-12T00:12:14.754Z,18.40
2018-12-12T00:17:17.292Z,20.90
2018-12-12T00:22:19.786Z,19.37
2018-12-12T00:27:22.385Z,17.82
2018-12-12T00:32:24.877Z,19.20
2018-12-12T00:37:27.370Z,19.10
2018-12-12T00:42:29.862Z,20.97
2018-12-12T00:47:32.366Z,18.23
2018-12-12T00:52:35.373Z,14.50
2018-12-12T00:57:37.821Z,12.78
2018-12-12T01:02:40.358Z,15.37
2018-12-12T01:07:42.823Z,18.98
2018-12-12T01:12:46.144Z,15.13
2018-12-12T01:17:49.481Z,16.50
2018-12-12T01:22:51.962Z,12.50
2018-12-12T01:27:54.453Z,13.30
2018-12-12T01:32:56.941Z,16.60
2018-12-12T01:37:59.550Z,20.75
2018-12-12T01:43:02.641Z,17.83
2018-12-12T01:48:05.153Z,16.57
2018-12-12T01:53:07.634Z,16.95
2018-12-12T01:58:10.117Z,14.00
2018-12-12T02:03:12.630Z,12.03
2018-12-12T02:08:15.118Z,16.07
2018-12-12T02:13:34.294Z,17.23
2018-12-12T02:18:38.096Z,16.02
2018-12-12T02:23:40.632Z,17.10
2018-12-12T02:28:43.110Z,14.03
2018-12-12T02:33:46.231Z,20.02
2018-12-12T02:38:48.714Z,13.90
2018-12-12T02:43:51.925Z,17.13
2018-12-12T02:48:54.630Z,17.30
2018-12-12T02:53:57.111Z,17.73
2018-12-12T02:58:59.726Z,16.45
2018-12-12T03:04:02.401Z,19.87
2018-12-12T03:09:05.946Z,18.02
2018-12-12T03:14:08.623Z,17.93
2018-12-12T03:19:11.629Z,15.13
2018-12-12T03:24:14.181Z,16.55
2018-12-12T03:29:16.714Z,15.27
2018-12-12T03:34:19.213Z,17.98
2018-12-12T03:39:21.726Z,15.33
2018-12-12T03:44:24.685Z,15.03
2018-12-12T03:49:27.211Z,15.45
2018-12-12T03:54:29.794Z,13.78
2018-12-12T03:59:32.902Z,15.80
2018-12-12T04:04:35.494Z,19.07
2018-12-12T04:09:38.537Z,15.50
2018-12-12T04:14:41.106Z,14.68
2018-12-12T04:19:43.605Z,17.42
2018-12-12T04:24:46.314Z,16.25
2018-12-12T04:29:48.881Z,14.20
2018-12-12T04:34:51.362Z,15.70
2018-12-12T04:39:53.975Z,17.02
2018-12-12T04:44:56.467Z,19.03
2018-12-12T04:49:59.069Z,18.65
2018-12-12T04:55:01.658Z,15.53
2018-12-12T05:00:05.003Z,13.32
2018-12-12T05:05:07.517Z,14.30
2018-12-12T05:10:10.016Z,14.40
2018-12-12T05:15:12.613Z,16.85
2018-12-12T05:20:15.058Z,15.20
2018-12-12T05:25:17.543Z,14.53
2018-12-12T05:30:20.498Z,12.55
2018-12-12T05:35:22.933Z,13.63
2018-12-12T05:40:25.774Z,12.45
2018-12-12T05:45:28.490Z,13.32
2018-12-12T05:50:30.968Z,11.70
2018-12-12T05:55:33.502Z,10.68
2018-12-12T06:00:36.429Z,13.80
2018-12-12T06:05:39.034Z,14.50
2018-12-12T06:10:41.627Z,15.27
2018-12-12T06:15:44.105Z,15.43
2018-12-12T06:20:46.610Z,11.20
2018-12-12T06:25:49.095Z,12.93
2018-12-12T06:30:51.590Z,14.73
2018-12-12T06:35:54.091Z,15.80
2018-12-12T06:40:56.609Z,14.83
2018-12-12T06:45:59.167Z,13.40
2018-12-12T06:51:01.759Z,11.17
2018-12-12T06:56:04.417Z,13.40
2018-12-12T07:01:06.910Z,13.73
2018-12-12T07:06:09.550Z,12.35
2018-12-12T07:11:12.010Z,11.95
2018-12-12T07:16:14.547Z,11.68
2018-12-12T07:21:17.030Z,12.50
2018-12-12T07:26:19.522Z,11.25
2018-12-12T07:31:22.115Z,12.17
2018-12-12T07:36:25.021Z,14.30
2018-12-12T07:41:27.850Z,13.40
2018-12-12T07:46:30.881Z,14.23
2018-12-12T07:51:33.429Z,16.07
2018-12-12T07:56:35.914Z,12.35
2018-12-12T08:01:38.406Z,14.37
2018-12-12T08:06:40.890Z,14.50
2018-12-12T08:11:43.494Z,20.50
2018-12-12T08:16:45.998Z,17.10
2018-12-12T08:21:48.573Z,12.80
2018-12-12T08:26:51.088Z,14.40
2018-12-12T08:31:53.669Z,12.23
2018-12-12T08:36:56.172Z,13.33
2018-12-12T08:41:58.645Z,12.47
2018-12-12T08:47:01.779Z,12.23
2018-12-12T08:52:04.610Z,11.53
2018-12-12T08:57:07.162Z,12.47
2018-12-12T09:02:09.658Z,13.33
2018-12-12T09:07:12.134Z,12.68
2018-12-12T09:12:14.662Z,12.70
2018-12-12T09:17:17.225Z,12.10
2018-12-12T09:22:20.341Z,13.32
2018-12-12T09:27:23.549Z,14.18
2018-12-12T09:32:26.103Z,12.25
2018-12-12T09:37:28.645Z,10.82
2018-12-12T09:42:31.146Z,10.95
2018-12-12T09:47:33.957Z,13.48
2018-12-12T09:52:36.418Z,10.72
2018-12-12T09:57:39.025Z,11.73
2018-12-12T10:02:42.138Z,12.65
2018-12-12T10:07:44.637Z,13.30
2018-12-12T10:12:47.125Z,13.05
2018-12-12T10:17:49.618Z,12.43
2018-12-12T10:22:52.114Z,12.47
2018-12-12T10:27:54.925Z,9.93
2018-12-12T10:32:57.962Z,12.88
2018-12-12T10:38:00.435Z,12.85
2018-12-12T10:43:02.994Z,11.73
2018-12-12T10:48:05.507Z,13.22
2018-12-12T10:53:08.091Z,11.63
2018-12-12T10:58:11.663Z,13.65
2018-12-12T11:03:19.986Z,10.85
2018-12-12T11:08:22.666Z,10.73
2018-12-12T11:13:25.225Z,9.60
2018-12-12T11:18:27.822Z,10.93
2018-12-12T11:23:31.137Z,12.85
2018-12-12T11:28:33.598Z,11.60
2018-12-12T11:33:36.541Z,9.97
2018-12-12T11:38:39.337Z,11.93
2018-12-12T11:43:41.862Z,13.50
2018-12-12T11:48:44.419Z,10.23
2018-12-12T11:53:47.626Z,11.60
2018-12-12T11:58:51.051Z,9.65
2018-12-12T12:03:56.745Z,7.65
2018-12-12T12:08:58.082Z,9.73
2018-12-12T12:14:00.578Z,9.03
2018-12-12T12:19:03.695Z,14.47
2018-12-12T12:24:06.150Z,8.00
2018-12-12T12:29:08.845Z,10.45
2018-12-12T12:34:11.319Z,9.23
2018-12-12T12:39:13.858Z,7.58
2018-12-12T12:44:17.721Z,9.00
2018-12-12T12:49:20.198Z,8.10
2018-12-12T12:54:22.757Z,7.70
2018-12-12T12:59:25.285Z,6.35
2018-12-12T13:04:27.858Z,5.87
2018-12-12T13:09:30.464Z,6.70
2018-12-12T13:14:33.046Z,6.62
2018-12-12T13:19:35.527Z,6.85
2018-12-12T13:24:38.086Z,7.87
2018-12-12T13:29:40.618Z,6.67
2018-12-12T13:34:43.131Z,9.10
2018-12-12T13:39:46.330Z,8.80
2018-12-12T13:44:49.032Z,8.03
2018-12-12T13:49:52.141Z,7.83
2018-12-12T13:54:54.629Z,7.83
2018-12-12T13:59:57.178Z,9.35
2018-12-12T14:04:59.625Z,12.15
2018-12-12T14:10:02.109Z,10.70
2018-12-12T14:15:05.154Z,8.18
2018-12-12T14:20:07.719Z,10.88
2018-12-12T14:25:10.819Z,9.00
2018-12-12T14:30:13.318Z,10.85
2018-12-12T14:35:15.810Z,11.55
2018-12-12T14:40:18.318Z,11.18
2018-12-12T14:45:20.890Z,13.53
2018-12-12T14:50:23.371Z,12.25
2018-12-12T14:55:26.246Z,12.40
2018-12-12T15:00:28.777Z,12.80
2018-12-12T15:05:31.582Z,15.98
2018-12-12T15:10:34.069Z,13.83
2018-12-12T15:15:37.186Z,13.15
2018-12-12T15:20:39.675Z,14.53
2018-12-12T15:25:42.197Z,13.17
2018-12-12T15:30:45.549Z,13.50
2018-12-12T15:35:48.073Z,16.07
2018-12-12T15:40:50.534Z,14.83
2018-12-12T15:45:53.762Z,15.30
2018-12-12T15:50:56.303Z,14.90
2018-12-12T15:55:59.179Z,16.00
2018-12-12T16:01:01.730Z,18.52
2018-12-12T16:06:04.177Z,18.15
2018-12-12T16:11:08.457Z,18.32
2018-12-12T16:16:11.366Z,19.20
2018-12-12T16:21:13.894Z,17.50
2018-12-12T16:26:16.489Z,17.42
2018-12-12T16:31:19.090Z,18.57
2018-12-12T16:36:21.552Z,18.87
2018-12-12T16:41:24.023Z,20.50
2018-12-12T16:46:26.563Z,18.73
2018-12-12T16:51:29.050Z,19.70
2018-12-12T16:56:31.538Z,17.02
2018-12-12T17:01:34.010Z,20.55
2018-12-12T17:06:36.565Z,17.62
2018-12-12T17:11:39.230Z,17.27
2018-12-12T17:16:41.695Z,16.63
2018-12-12T17:21:44.210Z,18.10
2018-12-12T17:26:46.799Z,17.60
2018-12-12T17:31:49.310Z,16.17
2018-12-12T17:36:51.797Z,16.10
2018-12-12T17:41:54.310Z,22.02
2018-12-12T17:46:56.781Z,17.75
2018-12-12T17:51:59.286Z,17.97
2018-12-12T17:57:01.755Z,18.52
2018-12-12T18:02:04.362Z,18.37
2018-12-12T18:07:06.818Z,19.50
2018-12-12T18:12:09.283Z,18.00
2018-12-12T18:17:11.791Z,21.87
2018-12-12T18:22:14.249Z,18.77
2018-12-12T18:27:16.747Z,17.95
2018-12-12T18:32:19.198Z,15.43
2018-12-12T18:37:21.667Z,14.95
2018-12-12T18:42:24.159Z,15.48
2018-12-12T18:47:26.610Z,15.90
2018-12-12T18:52:29.676Z,20.15
2018-12-12T18:57:32.237Z,17.75
2018-12-12T19:02:34.782Z,17.87
2018-12-12T19:07:37.250Z,17.82
2018-12-12T19:12:39.750Z,20.00
2018-12-12T19:17:42.206Z,21.37
2018-12-12T19:22:44.803Z,25.53
2018-12-12T19:27:47.290Z,24.50
2018-12-12T19:32:51.042Z,17.87
2018-12-12T19:37:53.798Z,19.57
2018-12-12T19:42:56.372Z,21.25
2018-12-12T19:47:58.821Z,23.00
2018-12-12T19:53:01.281Z,21.97
2018-12-12T19:58:03.910Z,22.02
2018-12-12T20:03:06.452Z,24.32
2018-12-12T20:08:08.917Z,24.18
2018-12-12T20:13:11.430Z,24.07
2018-12-12T20:18:14.259Z,23.57
2018-12-12T20:23:16.722Z,24.60
2018-12-12T20:28:19.205Z,27.22
2018-12-12T20:33:21.649Z,27.77
2018-12-12T20:38:24.153Z,26.00
2018-12-12T20:43:26.602Z,27.70
2018-12-12T20:48:29.070Z,31.57
2018-12-12T20:53:31.598Z,30.07
2018-12-12T20:58:37.269Z,37.88
2018-12-12T21:03:40.363Z,36.85
2018-12-12T21:08:43.583Z,38.55
2018-12-12T21:13:46.142Z,40.45
2018-12-12T21:18:48.695Z,49.93
2018-12-12T21:23:51.181Z,43.83
2018-12-12T21:28:53.703Z,47.83
2018-12-12T21:33:56.460Z,43.93
2018-12-12T21:38:58.970Z,34.17
2018-12-12T21:44:01.434Z,33.38
2018-12-12T21:49:03.933Z,29.30
2018-12-12T21:54:06.557Z,29.20
2018-12-12T21:59:09.046Z,29.07
2018-12-12T22:04:11.507Z,31.45
2018-12-12T22:09:13.987Z,35.08
2018-12-12T22:14:16.458Z,38.83
2018-12-12T22:19:18.950Z,36.80
2018-12-12T22:24:21.409Z,41.63
2018-12-12T22:29:23.867Z,48.80
2018-12-12T22:34:26.322Z,53.53
2018-12-12T22:39:28.863Z,57.50
2018-12-12T22:44:31.362Z,60.67
2018-12-12T22:49:34.376Z,84.07
2018-12-12T22:54:36.954Z,43.53
2018-12-12T22:59:39.460Z,38.05
2018-12-12T23:04:41.926Z,33.98
2018-12-12T23:09:45.154Z,34.83
2018-12-12T23:14:48.003Z,36.63
2018-12-12T23:19:50.516Z,38.67
2018-12-12T23:24:52.982Z,33.35
2018-12-12T23:29:55.542Z,34.13
2018-12-12T23:34:58.135Z,35.03
2018-12-12T23:40:00.618Z,34.58
2018-12-12T23:45:03.430Z,42.67
2018-12-12T23:50:05.910Z,50.90
2018-12-12T23:55:08.417Z,65.45
